sensor_id;sensor_type;location;lat;lon;timestamp;pressure;altitude;pressure_sealevel;temperature
16956;BMP180;8594;52.052;8.354;2023-05-24T00:01:54;101324.00;;;13.30
16956;BMP180;8594;52.052;8.354;2023-05-24T00:04:21;101330.00;;;13.10
16956;BMP180;8594;52.052;8.354;2023-05-24T00:06:49;101319.00;;;12.80
16956;BMP180;8594;52.052;8.354;2023-05-24T00:09:19;101314.00;;;13.00
16956;BMP180;8594;52.052;8.354;2023-05-24T00:11:47;101310.00;;;13.10
16956;BMP180;8594;52.052;8.354;2023-05-24T00:14:14;101315.00;;;12.90
16956;BMP180;8594;52.052;8.354;2023-05-24T00:16:41;101307.00;;;12.60
16956;BMP180;8594;52.052;8.354;2023-05-24T00:19:08;101310.00;;;12.90
16956;BMP180;8594;52.052;8.354;2023-05-24T00:21:35;101310.00;;;12.70
16956;BMP180;8594;52.052;8.354;2023-05-24T00:24:02;101311.00;;;12.50
16956;BMP180;8594;52.052;8.354;2023-05-24T00:26:29;101306.00;;;12.70
16956;BMP180;8594;52.052;8.354;2023-05-24T00:28:57;101306.00;;;12.70
16956;BMP180;8594;52.052;8.354;2023-05-24T00:31:24;101300.00;;;12.70
16956;BMP180;8594;52.052;8.354;2023-05-24T00:33:51;101304.00;;;12.60
16956;BMP180;8594;52.052;8.354;2023-05-24T00:36:17;101301.00;;;12.40
16956;BMP180;8594;52.052;8.354;2023-05-24T00:38:44;101302.00;;;12.70
16956;BMP180;8594;52.052;8.354;2023-05-24T00:41:11;101306.00;;;12.60
16956;BMP180;8594;52.052;8.354;2023-05-24T00:43:38;101293.00;;;12.70
16956;BMP180;8594;52.052;8.354;2023-05-24T00:46:16;101305.00;;;12.60
16956;BMP180;8594;52.052;8.354;2023-05-24T00:48:45;101313.00;;;12.80
16956;BMP180;8594;52.052;8.354;2023-05-24T00:51:13;101302.00;;;12.60
16956;BMP180;8594;52.052;8.354;2023-05-24T00:53:43;101311.00;;;12.60
16956;BMP180;8594;52.052;8.354;2023-05-24T00:56:12;101301.00;;;12.40
16956;BMP180;8594;52.052;8.354;2023-05-24T00:58:39;101295.00;;;12.20
16956;BMP180;8594;52.052;8.354;2023-05-24T01:01:06;101294.00;;;12.10
16956;BMP180;8594;52.052;8.354;2023-05-24T01:03:35;101290.00;;;12.30
16956;BMP180;8594;52.052;8.354;2023-05-24T01:06:04;101284.00;;;12.40
16956;BMP180;8594;52.052;8.354;2023-05-24T01:08:50;101281.00;;;12.30
16956;BMP180;8594;52.052;8.354;2023-05-24T01:11:28;101269.00;;;12.50
16956;BMP180;8594;52.052;8.354;2023-05-24T01:14:13;101270.00;;;12.60
16956;BMP180;8594;52.052;8.354;2023-05-24T01:16:51;101264.00;;;12.50
16956;BMP180;8594;52.052;8.354;2023-05-24T01:19:43;101265.00;;;12.60
16956;BMP180;8594;52.052;8.354;2023-05-24T01:22:28;101269.00;;;12.50
16956;BMP180;8594;52.052;8.354;2023-05-24T01:25:03;101263.00;;;12.50
16956;BMP180;8594;52.052;8.354;2023-05-24T01:27:36;101265.00;;;12.50
16956;BMP180;8594;52.052;8.354;2023-05-24T01:30:06;101272.00;;;12.50
16956;BMP180;8594;52.052;8.354;2023-05-24T01:32:33;101262.00;;;12.50
16956;BMP180;8594;52.052;8.354;2023-05-24T01:35:00;101261.00;;;12.10
16956;BMP180;8594;52.052;8.354;2023-05-24T01:37:27;101263.00;;;12.40
16956;BMP180;8594;52.052;8.354;2023-05-24T01:39:54;101268.00;;;12.10
16956;BMP180;8594;52.052;8.354;2023-05-24T01:42:26;101264.00;;;12.40
16956;BMP180;8594;52.052;8.354;2023-05-24T01:45:05;101265.00;;;12.50
16956;BMP180;8594;52.052;8.354;2023-05-24T01:47:59;101261.00;;;12.30
16956;BMP180;8594;52.052;8.354;2023-05-24T01:50:32;101260.00;;;12.10
16956;BMP180;8594;52.052;8.354;2023-05-24T01:53:05;101258.00;;;12.30
16956;BMP180;8594;52.052;8.354;2023-05-24T01:55:35;101249.00;;;11.90
16956;BMP180;8594;52.052;8.354;2023-05-24T01:58:05;101256.00;;;12.00
16956;BMP180;8594;52.052;8.354;2023-05-24T02:00:34;101243.00;;;12.30
16956;BMP180;8594;52.052;8.354;2023-05-24T02:03:01;101252.00;;;12.60
16956;BMP180;8594;52.052;8.354;2023-05-24T02:05:30;101263.00;;;12.20
16956;BMP180;8594;52.052;8.354;2023-05-24T02:07:57;101262.00;;;12.10
16956;BMP180;8594;52.052;8.354;2023-05-24T02:10:24;101256.00;;;12.00
16956;BMP180;8594;52.052;8.354;2023-05-24T02:12:51;101258.00;;;12.10
16956;BMP180;8594;52.052;8.354;2023-05-24T02:15:17;101258.00;;;12.30
16956;BMP180;8594;52.052;8.354;2023-05-24T02:17:46;101254.00;;;12.20
16956;BMP180;8594;52.052;8.354;2023-05-24T02:20:13;101255.00;;;11.50
16956;BMP180;8594;52.052;8.354;2023-05-24T02:22:41;101257.00;;;11.10
16956;BMP180;8594;52.052;8.354;2023-05-24T02:25:08;101258.00;;;11.20
16956;BMP180;8594;52.052;8.354;2023-05-24T02:27:35;101262.00;;;11.20
16956;BMP180;8594;52.052;8.354;2023-05-24T02:30:02;101264.00;;;11.50
16956;BMP180;8594;52.052;8.354;2023-05-24T02:32:30;101256.00;;;11.50
16956;BMP180;8594;52.052;8.354;2023-05-24T02:34:58;101255.00;;;11.40
16956;BMP180;8594;52.052;8.354;2023-05-24T02:37:26;101256.00;;;10.70
16956;BMP180;8594;52.052;8.354;2023-05-24T02:39:53;101258.00;;;10.60
16956;BMP180;8594;52.052;8.354;2023-05-24T02:42:19;101257.00;;;10.70
16956;BMP180;8594;52.052;8.354;2023-05-24T02:44:46;101252.00;;;10.20
16956;BMP180;8594;52.052;8.354;2023-05-24T02:47:14;101245.00;;;10.10
16956;BMP180;8594;52.052;8.354;2023-05-24T02:49:40;101243.00;;;10.00
16956;BMP180;8594;52.052;8.354;2023-05-24T02:52:09;101249.00;;;10.30
16956;BMP180;8594;52.052;8.354;2023-05-24T02:54:36;101254.00;;;10.30
16956;BMP180;8594;52.052;8.354;2023-05-24T02:57:03;101253.00;;;10.30
16956;BMP180;8594;52.052;8.354;2023-05-24T02:59:31;101253.00;;;10.20
16956;BMP180;8594;52.052;8.354;2023-05-24T03:01:58;101247.00;;;10.30
16956;BMP180;8594;52.052;8.354;2023-05-24T03:04:25;101248.00;;;10.30
16956;BMP180;8594;52.052;8.354;2023-05-24T03:06:51;101245.00;;;10.10
16956;BMP180;8594;52.052;8.354;2023-05-24T03:09:20;101253.00;;;10.40
16956;BMP180;8594;52.052;8.354;2023-05-24T03:11:47;101245.00;;;10.20
16956;BMP180;8594;52.052;8.354;2023-05-24T03:14:13;101249.00;;;10.10
16956;BMP180;8594;52.052;8.354;2023-05-24T03:16:41;101245.00;;;9.70
16956;BMP180;8594;52.052;8.354;2023-05-24T03:19:08;101256.00;;;10.20
16956;BMP180;8594;52.052;8.354;2023-05-24T03:21:35;101255.00;;;10.20
16956;BMP180;8594;52.052;8.354;2023-05-24T03:24:02;101263.00;;;10.50
16956;BMP180;8594;52.052;8.354;2023-05-24T03:26:30;101254.00;;;10.60
16956;BMP180;8594;52.052;8.354;2023-05-24T03:28:57;101252.00;;;10.90
16956;BMP180;8594;52.052;8.354;2023-05-24T03:31:24;101257.00;;;10.80
16956;BMP180;8594;52.052;8.354;2023-05-24T03:33:51;101253.00;;;10.80
16956;BMP180;8594;52.052;8.354;2023-05-24T03:36:18;101268.00;;;10.60
16956;BMP180;8594;52.052;8.354;2023-05-24T03:38:45;101248.00;;;10.30
16956;BMP180;8594;52.052;8.354;2023-05-24T03:41:12;101253.00;;;10.40
16956;BMP180;8594;52.052;8.354;2023-05-24T03:43:40;101256.00;;;10.00
16956;BMP180;8594;52.052;8.354;2023-05-24T03:46:07;101260.00;;;10.10
16956;BMP180;8594;52.052;8.354;2023-05-24T03:48:33;101271.00;;;10.90
16956;BMP180;8594;52.052;8.354;2023-05-24T03:51:00;101262.00;;;10.30
16956;BMP180;8594;52.052;8.354;2023-05-24T03:53:27;101264.00;;;10.30
16956;BMP180;8594;52.052;8.354;2023-05-24T03:55:54;101261.00;;;10.10
16956;BMP180;8594;52.052;8.354;2023-05-24T03:58:21;101255.00;;;10.30
16956;BMP180;8594;52.052;8.354;2023-05-24T04:00:49;101263.00;;;10.40
16956;BMP180;8594;52.052;8.354;2023-05-24T04:03:16;101263.00;;;10.40
16956;BMP180;8594;52.052;8.354;2023-05-24T04:05:44;101262.00;;;10.40
16956;BMP180;8594;52.052;8.354;2023-05-24T04:08:11;101276.00;;;10.60
16956;BMP180;8594;52.052;8.354;2023-05-24T04:10:39;101269.00;;;10.30
16956;BMP180;8594;52.052;8.354;2023-05-24T04:13:07;101272.00;;;10.90
16956;BMP180;8594;52.052;8.354;2023-05-24T04:15:34;101264.00;;;10.40
16956;BMP180;8594;52.052;8.354;2023-05-24T04:18:04;101264.00;;;11.00
16956;BMP180;8594;52.052;8.354;2023-05-24T04:20:31;101253.00;;;10.30
16956;BMP180;8594;52.052;8.354;2023-05-24T04:22:57;101259.00;;;10.60
16956;BMP180;8594;52.052;8.354;2023-05-24T04:25:25;101267.00;;;10.70
16956;BMP180;8594;52.052;8.354;2023-05-24T04:27:52;101257.00;;;10.90
16956;BMP180;8594;52.052;8.354;2023-05-24T04:30:19;101245.00;;;10.90
16956;BMP180;8594;52.052;8.354;2023-05-24T04:32:45;101251.00;;;11.10
16956;BMP180;8594;52.052;8.354;2023-05-24T04:35:14;101259.00;;;11.20
16956;BMP180;8594;52.052;8.354;2023-05-24T04:37:41;101255.00;;;11.10
16956;BMP180;8594;52.052;8.354;2023-05-24T04:40:10;101246.00;;;11.30
16956;BMP180;8594;52.052;8.354;2023-05-24T04:42:37;101244.00;;;11.20
16956;BMP180;8594;52.052;8.354;2023-05-24T04:45:05;101249.00;;;11.10
16956;BMP180;8594;52.052;8.354;2023-05-24T04:47:32;101250.00;;;11.20
16956;BMP180;8594;52.052;8.354;2023-05-24T04:49:58;101262.00;;;11.50
16956;BMP180;8594;52.052;8.354;2023-05-24T04:52:26;101262.00;;;11.20
16956;BMP180;8594;52.052;8.354;2023-05-24T04:54:55;101257.00;;;11.10
16956;BMP180;8594;52.052;8.354;2023-05-24T04:57:22;101248.00;;;11.60
16956;BMP180;8594;52.052;8.354;2023-05-24T04:59:49;101254.00;;;11.40
16956;BMP180;8594;52.052;8.354;2023-05-24T05:02:16;101259.00;;;11.60
16956;BMP180;8594;52.052;8.354;2023-05-24T05:04:43;101262.00;;;11.30
16956;BMP180;8594;52.052;8.354;2023-05-24T05:07:10;101270.00;;;11.80
16956;BMP180;8594;52.052;8.354;2023-05-24T05:09:38;101274.00;;;12.10
16956;BMP180;8594;52.052;8.354;2023-05-24T05:12:05;101269.00;;;12.10
16956;BMP180;8594;52.052;8.354;2023-05-24T05:14:32;101268.00;;;12.20
16956;BMP180;8594;52.052;8.354;2023-05-24T05:16:59;101270.00;;;12.20
16956;BMP180;8594;52.052;8.354;2023-05-24T05:19:25;101261.00;;;12.00
16956;BMP180;8594;52.052;8.354;2023-05-24T05:21:52;101275.00;;;12.20
16956;BMP180;8594;52.052;8.354;2023-05-24T05:24:19;101272.00;;;12.20
16956;BMP180;8594;52.052;8.354;2023-05-24T05:26:47;101274.00;;;12.10
16956;BMP180;8594;52.052;8.354;2023-05-24T05:29:14;101271.00;;;12.50
16956;BMP180;8594;52.052;8.354;2023-05-24T05:31:41;101274.00;;;12.30
16956;BMP180;8594;52.052;8.354;2023-05-24T05:34:08;101277.00;;;12.40
16956;BMP180;8594;52.052;8.354;2023-05-24T05:36:36;101284.00;;;12.40
16956;BMP180;8594;52.052;8.354;2023-05-24T05:39:07;101286.00;;;12.10
16956;BMP180;8594;52.052;8.354;2023-05-24T05:41:37;101282.00;;;12.70
16956;BMP180;8594;52.052;8.354;2023-05-24T05:44:05;101272.00;;;12.30
16956;BMP180;8594;52.052;8.354;2023-05-24T05:46:32;101291.00;;;12.50
16956;BMP180;8594;52.052;8.354;2023-05-24T05:48:59;101282.00;;;12.50
16956;BMP180;8594;52.052;8.354;2023-05-24T05:51:25;101290.00;;;12.40
16956;BMP180;8594;52.052;8.354;2023-05-24T05:53:52;101295.00;;;12.80
16956;BMP180;8594;52.052;8.354;2023-05-24T05:56:19;101291.00;;;12.70
16956;BMP180;8594;52.052;8.354;2023-05-24T05:58:46;101297.00;;;12.70
16956;BMP180;8594;52.052;8.354;2023-05-24T06:01:15;101304.00;;;12.80
16956;BMP180;8594;52.052;8.354;2023-05-24T06:03:42;101304.00;;;12.90
16956;BMP180;8594;52.052;8.354;2023-05-24T06:06:08;101305.00;;;13.30
16956;BMP180;8594;52.052;8.354;2023-05-24T06:08:35;101295.00;;;13.10
16956;BMP180;8594;52.052;8.354;2023-05-24T06:11:02;101299.00;;;13.40
16956;BMP180;8594;52.052;8.354;2023-05-24T06:13:29;101292.00;;;13.20
16956;BMP180;8594;52.052;8.354;2023-05-24T06:15:57;101296.00;;;13.30
16956;BMP180;8594;52.052;8.354;2023-05-24T06:18:25;101299.00;;;13.30
16956;BMP180;8594;52.052;8.354;2023-05-24T06:20:55;101300.00;;;13.50
16956;BMP180;8594;52.052;8.354;2023-05-24T06:23:21;101297.00;;;13.20
16956;BMP180;8594;52.052;8.354;2023-05-24T06:25:48;101302.00;;;13.10
16956;BMP180;8594;52.052;8.354;2023-05-24T06:28:15;101306.00;;;13.40
16956;BMP180;8594;52.052;8.354;2023-05-24T06:30:42;101309.00;;;13.50
16956;BMP180;8594;52.052;8.354;2023-05-24T06:33:09;101306.00;;;13.50
16956;BMP180;8594;52.052;8.354;2023-05-24T06:35:37;101298.00;;;13.40
16956;BMP180;8594;52.052;8.354;2023-05-24T06:38:04;101293.00;;;13.40
16956;BMP180;8594;52.052;8.354;2023-05-24T06:40:31;101298.00;;;13.70
16956;BMP180;8594;52.052;8.354;2023-05-24T06:42:57;101290.00;;;13.30
16956;BMP180;8594;52.052;8.354;2023-05-24T06:45:24;101296.00;;;13.70
16956;BMP180;8594;52.052;8.354;2023-05-24T06:47:51;101309.00;;;13.20
16956;BMP180;8594;52.052;8.354;2023-05-24T06:50:18;101310.00;;;13.10
16956;BMP180;8594;52.052;8.354;2023-05-24T06:52:46;101308.00;;;13.60
16956;BMP180;8594;52.052;8.354;2023-05-24T06:55:13;101317.00;;;13.70
16956;BMP180;8594;52.052;8.354;2023-05-24T06:57:40;101310.00;;;13.80
16956;BMP180;8594;52.052;8.354;2023-05-24T07:00:08;101317.00;;;13.80
16956;BMP180;8594;52.052;8.354;2023-05-24T07:02:37;101320.00;;;14.00
16956;BMP180;8594;52.052;8.354;2023-05-24T07:05:05;101315.00;;;13.70
16956;BMP180;8594;52.052;8.354;2023-05-24T07:07:35;101315.00;;;13.80
16956;BMP180;8594;52.052;8.354;2023-05-24T07:10:05;101314.00;;;13.90
16956;BMP180;8594;52.052;8.354;2023-05-24T07:12:32;101315.00;;;14.00
16956;BMP180;8594;52.052;8.354;2023-05-24T07:14:59;101319.00;;;14.40
16956;BMP180;8594;52.052;8.354;2023-05-24T07:17:26;101321.00;;;14.40
16956;BMP180;8594;52.052;8.354;2023-05-24T07:19:52;101315.00;;;14.40
16956;BMP180;8594;52.052;8.354;2023-05-24T07:22:19;101319.00;;;14.60
16956;BMP180;8594;52.052;8.354;2023-05-24T07:24:47;101323.00;;;14.50
16956;BMP180;8594;52.052;8.354;2023-05-24T07:27:15;101322.00;;;15.00
16956;BMP180;8594;52.052;8.354;2023-05-24T07:29:41;101331.00;;;15.00
16956;BMP180;8594;52.052;8.354;2023-05-24T07:32:08;101331.00;;;14.40
16956;BMP180;8594;52.052;8.354;2023-05-24T07:34:35;101326.00;;;15.20
16956;BMP180;8594;52.052;8.354;2023-05-24T07:37:04;101336.00;;;15.00
16956;BMP180;8594;52.052;8.354;2023-05-24T07:39:31;101329.00;;;15.10
16956;BMP180;8594;52.052;8.354;2023-05-24T07:41:59;101328.00;;;15.40
16956;BMP180;8594;52.052;8.354;2023-05-24T07:44:28;101324.00;;;15.90
16956;BMP180;8594;52.052;8.354;2023-05-24T07:46:54;101314.00;;;16.10
16956;BMP180;8594;52.052;8.354;2023-05-24T07:49:21;101317.00;;;16.00
16956;BMP180;8594;52.052;8.354;2023-05-24T07:51:48;101312.00;;;15.80
16956;BMP180;8594;52.052;8.354;2023-05-24T07:54:15;101317.00;;;16.10
16956;BMP180;8594;52.052;8.354;2023-05-24T07:56:42;101317.00;;;16.30
16956;BMP180;8594;52.052;8.354;2023-05-24T07:59:09;101314.00;;;16.50
16956;BMP180;8594;52.052;8.354;2023-05-24T08:01:37;101318.00;;;16.40
16956;BMP180;8594;52.052;8.354;2023-05-24T08:04:04;101315.00;;;15.90
16956;BMP180;8594;52.052;8.354;2023-05-24T08:06:33;101317.00;;;16.40
16956;BMP180;8594;52.052;8.354;2023-05-24T08:08:59;101321.00;;;16.90
16956;BMP180;8594;52.052;8.354;2023-05-24T08:11:26;101321.00;;;16.10
16956;BMP180;8594;52.052;8.354;2023-05-24T08:13:53;101328.00;;;16.00
16956;BMP180;8594;52.052;8.354;2023-05-24T08:16:20;101330.00;;;16.20
16956;BMP180;8594;52.052;8.354;2023-05-24T08:18:48;101339.00;;;16.30
16956;BMP180;8594;52.052;8.354;2023-05-24T08:21:15;101335.00;;;16.30
16956;BMP180;8594;52.052;8.354;2023-05-24T08:23:42;101328.00;;;16.20
16956;BMP180;8594;52.052;8.354;2023-05-24T08:26:08;101335.00;;;16.80
16956;BMP180;8594;52.052;8.354;2023-05-24T08:28:35;101322.00;;;16.60
16956;BMP180;8594;52.052;8.354;2023-05-24T08:31:02;101328.00;;;16.30
16956;BMP180;8594;52.052;8.354;2023-05-24T08:33:29;101329.00;;;16.40
16956;BMP180;8594;52.052;8.354;2023-05-24T08:35:57;101332.00;;;16.40
16956;BMP180;8594;52.052;8.354;2023-05-24T08:38:24;101334.00;;;16.50
16956;BMP180;8594;52.052;8.354;2023-05-24T08:40:51;101332.00;;;16.50
16956;BMP180;8594;52.052;8.354;2023-05-24T08:43:18;101336.00;;;16.90
16956;BMP180;8594;52.052;8.354;2023-05-24T08:45:47;101343.00;;;16.80
16956;BMP180;8594;52.052;8.354;2023-05-24T08:48:14;101328.00;;;16.30
16956;BMP180;8594;52.052;8.354;2023-05-24T08:50:43;101330.00;;;15.90
16956;BMP180;8594;52.052;8.354;2023-05-24T08:53:13;101336.00;;;16.20
16956;BMP180;8594;52.052;8.354;2023-05-24T08:55:40;101335.00;;;16.70
16956;BMP180;8594;52.052;8.354;2023-05-24T08:58:09;101332.00;;;16.70
16956;BMP180;8594;52.052;8.354;2023-05-24T09:00:36;101330.00;;;16.00
16956;BMP180;8594;52.052;8.354;2023-05-24T09:03:05;101336.00;;;16.30
16956;BMP180;8594;52.052;8.354;2023-05-24T09:05:35;101331.00;;;16.00
16956;BMP180;8594;52.052;8.354;2023-05-24T09:08:03;101340.00;;;16.00
16956;BMP180;8594;52.052;8.354;2023-05-24T09:10:32;101332.00;;;16.60
16956;BMP180;8594;52.052;8.354;2023-05-24T09:13:02;101333.00;;;16.40
16956;BMP180;8594;52.052;8.354;2023-05-24T09:15:28;101331.00;;;16.20
16956;BMP180;8594;52.052;8.354;2023-05-24T09:17:56;101340.00;;;16.40
16956;BMP180;8594;52.052;8.354;2023-05-24T09:20:22;101343.00;;;15.70
16956;BMP180;8594;52.052;8.354;2023-05-24T09:22:51;101348.00;;;16.00
16956;BMP180;8594;52.052;8.354;2023-05-24T09:25:19;101345.00;;;16.20
16956;BMP180;8594;52.052;8.354;2023-05-24T09:27:51;101349.00;;;16.50
16956;BMP180;8594;52.052;8.354;2023-05-24T09:30:19;101348.00;;;16.60
16956;BMP180;8594;52.052;8.354;2023-05-24T09:32:59;101356.00;;;16.60
16956;BMP180;8594;52.052;8.354;2023-05-24T09:35:26;101358.00;;;16.60
16956;BMP180;8594;52.052;8.354;2023-05-24T09:37:54;101362.00;;;15.70
16956;BMP180;8594;52.052;8.354;2023-05-24T09:40:22;101366.00;;;15.60
16956;BMP180;8594;52.052;8.354;2023-05-24T09:43:02;101355.00;;;15.30
16956;BMP180;8594;52.052;8.354;2023-05-24T09:45:29;101365.00;;;15.60
16956;BMP180;8594;52.052;8.354;2023-05-24T09:47:56;101365.00;;;15.90
16956;BMP180;8594;52.052;8.354;2023-05-24T09:50:25;101357.00;;;15.80
16956;BMP180;8594;52.052;8.354;2023-05-24T09:52:52;101363.00;;;15.80
16956;BMP180;8594;52.052;8.354;2023-05-24T09:55:21;101359.00;;;16.00
16956;BMP180;8594;52.052;8.354;2023-05-24T09:58:00;101365.00;;;16.10
16956;BMP180;8594;52.052;8.354;2023-05-24T10:00:28;101363.00;;;16.50
16956;BMP180;8594;52.052;8.354;2023-05-24T10:03:03;101357.00;;;16.10
16956;BMP180;8594;52.052;8.354;2023-05-24T10:05:32;101359.00;;;16.00
16956;BMP180;8594;52.052;8.354;2023-05-24T10:08:00;101357.00;;;16.20
16956;BMP180;8594;52.052;8.354;2023-05-24T10:10:31;101363.00;;;15.80
16956;BMP180;8594;52.052;8.354;2023-05-24T10:13:01;101355.00;;;16.20
16956;BMP180;8594;52.052;8.354;2023-05-24T10:15:28;101357.00;;;15.90
16956;BMP180;8594;52.052;8.354;2023-05-24T10:17:57;101361.00;;;15.80
16956;BMP180;8594;52.052;8.354;2023-05-24T10:20:24;101360.00;;;15.90
16956;BMP180;8594;52.052;8.354;2023-05-24T10:22:53;101365.00;;;16.20
16956;BMP180;8594;52.052;8.354;2023-05-24T10:25:22;101366.00;;;15.50
16956;BMP180;8594;52.052;8.354;2023-05-24T10:27:53;101359.00;;;15.60
16956;BMP180;8594;52.052;8.354;2023-05-24T10:30:31;101364.00;;;15.60
16956;BMP180;8594;52.052;8.354;2023-05-24T10:33:00;101369.00;;;16.10
16956;BMP180;8594;52.052;8.354;2023-05-24T10:35:29;101371.00;;;16.00
16956;BMP180;8594;52.052;8.354;2023-05-24T10:37:57;101368.00;;;15.60
16956;BMP180;8594;52.052;8.354;2023-05-24T10:40:24;101370.00;;;15.80
16956;BMP180;8594;52.052;8.354;2023-05-24T10:42:51;101373.00;;;15.80
16956;BMP180;8594;52.052;8.354;2023-05-24T10:45:37;101374.00;;;15.20
16956;BMP180;8594;52.052;8.354;2023-05-24T10:50:50;101367.00;;;16.10
16956;BMP180;8594;52.052;8.354;2023-05-24T10:53:20;101370.00;;;15.60
16956;BMP180;8594;52.052;8.354;2023-05-24T10:55:52;101374.00;;;16.10
16956;BMP180;8594;52.052;8.354;2023-05-24T10:58:21;101367.00;;;15.90
16956;BMP180;8594;52.052;8.354;2023-05-24T11:00:50;101366.00;;;16.20
16956;BMP180;8594;52.052;8.354;2023-05-24T11:03:18;101373.00;;;16.00
16956;BMP180;8594;52.052;8.354;2023-05-24T11:05:52;101363.00;;;16.50
16956;BMP180;8594;52.052;8.354;2023-05-24T11:08:24;101366.00;;;16.50
16956;BMP180;8594;52.052;8.354;2023-05-24T11:11:02;101363.00;;;16.60
16956;BMP180;8594;52.052;8.354;2023-05-24T11:13:32;101359.00;;;16.80
16956;BMP180;8594;52.052;8.354;2023-05-24T11:16:01;101359.00;;;16.80
16956;BMP180;8594;52.052;8.354;2023-05-24T11:18:28;101365.00;;;16.90
16956;BMP180;8594;52.052;8.354;2023-05-24T11:20:58;101363.00;;;16.80
16956;BMP180;8594;52.052;8.354;2023-05-24T11:23:25;101362.00;;;17.00
16956;BMP180;8594;52.052;8.354;2023-05-24T11:25:55;101370.00;;;16.90
16956;BMP180;8594;52.052;8.354;2023-05-24T11:28:22;101364.00;;;16.90
16956;BMP180;8594;52.052;8.354;2023-05-24T11:30:49;101362.00;;;17.00
16956;BMP180;8594;52.052;8.354;2023-05-24T11:33:19;101364.00;;;16.90
16956;BMP180;8594;52.052;8.354;2023-05-24T11:35:47;101356.00;;;17.10
16956;BMP180;8594;52.052;8.354;2023-05-24T11:38:18;101348.00;;;17.60
16956;BMP180;8594;52.052;8.354;2023-05-24T11:40:47;101360.00;;;17.30
16956;BMP180;8594;52.052;8.354;2023-05-24T11:43:17;101355.00;;;17.30
16956;BMP180;8594;52.052;8.354;2023-05-24T11:45:47;101350.00;;;17.30
16956;BMP180;8594;52.052;8.354;2023-05-24T11:48:17;101346.00;;;16.70
16956;BMP180;8594;52.052;8.354;2023-05-24T11:50:46;101342.00;;;17.00
16956;BMP180;8594;52.052;8.354;2023-05-24T11:53:17;101339.00;;;18.40
16956;BMP180;8594;52.052;8.354;2023-05-24T11:55:44;101350.00;;;17.80
16956;BMP180;8594;52.052;8.354;2023-05-24T11:58:21;101355.00;;;18.10
16956;BMP180;8594;52.052;8.354;2023-05-24T12:00:49;101347.00;;;18.20
16956;BMP180;8594;52.052;8.354;2023-05-24T12:03:17;101344.00;;;18.50
16956;BMP180;8594;52.052;8.354;2023-05-24T12:05:44;101341.00;;;18.20
16956;BMP180;8594;52.052;8.354;2023-05-24T12:08:12;101356.00;;;18.40
16956;BMP180;8594;52.052;8.354;2023-05-24T12:10:41;101343.00;;;18.20
16956;BMP180;8594;52.052;8.354;2023-05-24T12:13:20;101347.00;;;17.90
16956;BMP180;8594;52.052;8.354;2023-05-24T12:15:49;101348.00;;;17.80
16956;BMP180;8594;52.052;8.354;2023-05-24T12:18:19;101341.00;;;18.00
16956;BMP180;8594;52.052;8.354;2023-05-24T12:20:46;101347.00;;;18.00
16956;BMP180;8594;52.052;8.354;2023-05-24T12:23:14;101349.00;;;17.70
16956;BMP180;8594;52.052;8.354;2023-05-24T12:25:42;101345.00;;;18.00
16956;BMP180;8594;52.052;8.354;2023-05-24T12:28:09;101358.00;;;17.00
16956;BMP180;8594;52.052;8.354;2023-05-24T12:30:37;101348.00;;;17.10
16956;BMP180;8594;52.052;8.354;2023-05-24T12:33:08;101355.00;;;17.50
16956;BMP180;8594;52.052;8.354;2023-05-24T12:35:39;101356.00;;;17.10
16956;BMP180;8594;52.052;8.354;2023-05-24T12:38:08;101366.00;;;17.80
16956;BMP180;8594;52.052;8.354;2023-05-24T12:40:36;101365.00;;;17.10
16956;BMP180;8594;52.052;8.354;2023-05-24T12:43:04;101364.00;;;17.20
16956;BMP180;8594;52.052;8.354;2023-05-24T12:45:30;101364.00;;;17.00
16956;BMP180;8594;52.052;8.354;2023-05-24T12:47:58;101370.00;;;17.00
16956;BMP180;8594;52.052;8.354;2023-05-24T12:50:27;101369.00;;;16.90
16956;BMP180;8594;52.052;8.354;2023-05-24T12:52:56;101370.00;;;17.40
16956;BMP180;8594;52.052;8.354;2023-05-24T12:55:25;101363.00;;;17.40
16956;BMP180;8594;52.052;8.354;2023-05-24T12:57:54;101362.00;;;17.50
16956;BMP180;8594;52.052;8.354;2023-05-24T13:00:23;101367.00;;;17.80
16956;BMP180;8594;52.052;8.354;2023-05-24T13:02:51;101368.00;;;17.90
16956;BMP180;8594;52.052;8.354;2023-05-24T13:05:20;101358.00;;;18.20
16956;BMP180;8594;52.052;8.354;2023-05-24T13:07:49;101359.00;;;18.10
16956;BMP180;8594;52.052;8.354;2023-05-24T13:10:18;101365.00;;;17.70
16956;BMP180;8594;52.052;8.354;2023-05-24T13:12:45;101361.00;;;17.70
16956;BMP180;8594;52.052;8.354;2023-05-24T13:15:12;101356.00;;;17.80
16956;BMP180;8594;52.052;8.354;2023-05-24T13:17:40;101355.00;;;17.40
16956;BMP180;8594;52.052;8.354;2023-05-24T13:20:07;101358.00;;;17.40
16956;BMP180;8594;52.052;8.354;2023-05-24T13:22:37;101359.00;;;17.40
16956;BMP180;8594;52.052;8.354;2023-05-24T13:25:06;101363.00;;;17.30
16956;BMP180;8594;52.052;8.354;2023-05-24T13:27:35;101370.00;;;17.40
16956;BMP180;8594;52.052;8.354;2023-05-24T13:30:03;101365.00;;;17.20
16956;BMP180;8594;52.052;8.354;2023-05-24T13:32:30;101357.00;;;17.10
16956;BMP180;8594;52.052;8.354;2023-05-24T13:34:58;101360.00;;;17.60
16956;BMP180;8594;52.052;8.354;2023-05-24T13:37:25;101369.00;;;17.60
16956;BMP180;8594;52.052;8.354;2023-05-24T13:39:51;101363.00;;;17.70
16956;BMP180;8594;52.052;8.354;2023-05-24T13:42:18;101360.00;;;17.70
16956;BMP180;8594;52.052;8.354;2023-05-24T13:44:47;101352.00;;;17.60
16956;BMP180;8594;52.052;8.354;2023-05-24T13:47:14;101357.00;;;17.70
16956;BMP180;8594;52.052;8.354;2023-05-24T13:49:44;101356.00;;;18.10
16956;BMP180;8594;52.052;8.354;2023-05-24T13:52:11;101350.00;;;18.50
16956;BMP180;8594;52.052;8.354;2023-05-24T13:54:38;101360.00;;;18.50
16956;BMP180;8594;52.052;8.354;2023-05-24T13:57:05;101350.00;;;17.40
16956;BMP180;8594;52.052;8.354;2023-05-24T13:59:31;101349.00;;;17.80
16956;BMP180;8594;52.052;8.354;2023-05-24T14:02:00;101352.00;;;17.80
16956;BMP180;8594;52.052;8.354;2023-05-24T14:04:27;101359.00;;;17.60
16956;BMP180;8594;52.052;8.354;2023-05-24T14:06:55;101357.00;;;18.20
16956;BMP180;8594;52.052;8.354;2023-05-24T14:09:22;101362.00;;;18.30
16956;BMP180;8594;52.052;8.354;2023-05-24T14:11:50;101362.00;;;18.20
16956;BMP180;8594;52.052;8.354;2023-05-24T14:14:17;101368.00;;;17.80
16956;BMP180;8594;52.052;8.354;2023-05-24T14:16:44;101376.00;;;17.90
16956;BMP180;8594;52.052;8.354;2023-05-24T14:19:17;101363.00;;;17.50